Time;durP1;ratioP1;P1;durP2;ratioP2;P2;SDS_P1;SDS_P2;PMS_P1;PMS_P2;Temp;Humidity;BMP_temperature;BMP_pressure;BME280_temperature;BME280_humidity;BME280_pressure;Samples;Min_cycle;Max_cycle;Signal;HPM_P1;HPM_P2
2023/08/21 00:01:55;;;;;;;6.82;3.80;;;;;;;26.99;44.95;100179.38;10300442;28;20321;-68
2023/08/21 00:06:57;;;;;;;5.57;4.03;;;;;;;28.38;43.23;100154.06;10302299;28;20245;-68
2023/08/21 00:11:59;;;;;;;3.78;3.30;;;;;;;28.64;43.33;100159.22;10311357;28;20233;-68
2023/08/21 00:17:03;;;;;;;6.47;3.65;;;;;;;28.30;44.21;100165.75;10308978;28;20606;-67
2023/08/21 00:22:04;;;;;;;5.13;3.78;;;;;;;27.45;44.33;100206.50;10317659;28;20235;-68
2023/08/21 00:27:06;;;;;;;4.38;3.40;;;;;;;27.55;44.84;100160.78;10320763;28;20237;-67
2023/08/21 00:32:08;;;;;;;7.30;3.20;;;;;;;28.91;43.03;100120.00;10306153;28;20230;-67
2023/08/21 00:37:11;;;;;;;8.15;3.58;;;;;;;28.81;42.92;100131.16;10305345;28;20252;-67
2023/08/21 00:42:12;;;;;;;6.28;3.75;;;;;;;27.70;44.71;100163.41;10304705;28;20721;-68
2023/08/21 00:47:14;;;;;;;4.93;3.55;;;;;;;28.31;43.38;100147.31;10306860;28;20737;-67
2023/08/21 00:52:17;;;;;;;5.88;4.03;;;;;;;26.78;45.94;100180.63;10321812;28;20229;-67
2023/08/21 00:57:19;;;;;;;5.70;3.78;;;;;;;26.41;47.00;100174.50;10336832;28;20668;-67
2023/08/21 01:02:21;;;;;;;4.97;3.88;;;;;;;26.73;46.99;100154.03;10342588;28;20268;-66
2023/08/21 01:07:23;;;;;;;5.68;4.40;;;;;;;27.75;44.75;100137.78;10325713;28;20321;-67
2023/08/21 01:12:43;;;;;;;6.75;3.83;;;;;;;28.13;44.12;100148.88;10304073;28;20280;-67
2023/08/21 01:17:47;;;;;;;5.50;3.90;;;;;;;28.03;44.55;100141.56;10304280;28;20331;-67
2023/08/21 01:22:50;;;;;;;6.20;4.00;;;;;;;28.89;42.82;100144.25;10303082;28;20233;-66
2023/08/21 01:27:51;;;;;;;6.30;3.75;;;;;;;28.25;43.66;100163.06;10318392;28;20324;-67
2023/08/21 01:33:08;;;;;;;5.05;3.70;;;;;;;28.19;43.77;100159.56;10314918;28;20336;-67
2023/08/21 01:38:10;;;;;;;6.05;3.97;;;;;;;28.41;43.42;100163.69;10321978;28;21270;-66
2023/08/21 01:43:12;;;;;;;5.85;3.75;;;;;;;28.23;43.83;100165.28;10314794;28;20230;-66
2023/08/21 01:48:13;;;;;;;5.97;4.00;;;;;;;27.77;43.69;100185.88;10295137;28;20240;-66
2023/08/21 01:53:15;;;;;;;4.78;3.58;;;;;;;27.91;44.34;100150.25;10304038;28;20229;-66
2023/08/21 01:58:17;;;;;;;5.10;4.25;;;;;;;26.26;46.77;100196.50;10299817;28;20317;-66
2023/08/21 02:03:18;;;;;;;5.63;4.47;;;;;;;25.99;46.92;100194.91;10298992;28;20245;-67
2023/08/21 02:08:20;;;;;;;6.60;4.50;;;;;;;24.96;49.32;100208.63;10305434;28;20240;-66
2023/08/21 02:13:22;;;;;;;7.20;5.18;;;;;;;24.28;51.19;100193.06;10302234;28;20261;-67
2023/08/21 02:18:24;;;;;;;6.53;4.53;;;;;;;23.10;53.41;100215.97;10309337;28;20233;-66
2023/08/21 02:23:25;;;;;;;5.70;4.63;;;;;;;23.25;53.25;100207.94;10308614;28;20233;-65
2023/08/21 02:28:27;;;;;;;6.80;4.50;;;;;;;24.29;51.40;100193.91;10301908;28;20238;-66
2023/08/21 02:33:29;;;;;;;6.13;4.63;;;;;;;23.85;52.66;100203.19;10311152;28;20461;-66
2023/08/21 02:38:30;;;;;;;5.43;4.43;;;;;;;24.36;51.74;100189.03;10297206;28;20241;-66
2023/08/21 02:43:32;;;;;;;7.63;4.80;;;;;;;23.89;52.93;100212.53;10302957;28;20233;-66
2023/08/21 02:48:34;;;;;;;6.32;4.70;;;;;;;23.34;53.20;100227.38;10301948;28;20710;-66
2023/08/21 02:53:36;;;;;;;7.70;5.15;;;;;;;23.43;53.40;100221.19;10298297;28;20234;-66
2023/08/21 02:58:37;;;;;;;6.15;5.07;;;;;;;24.43;51.22;100207.88;10297651;28;20257;-66
2023/08/21 03:03:39;;;;;;;5.25;4.75;;;;;;;24.10;51.38;100240.78;10303696;28;20796;-66
2023/08/21 03:08:43;;;;;;;7.32;4.65;;;;;;;24.90;49.64;100198.78;10299002;28;20320;-66
2023/08/21 03:13:44;;;;;;;5.88;4.43;;;;;;;24.98;49.78;100202.88;10296217;28;20867;-65
2023/08/21 03:19:00;;;;;;;5.80;4.15;;;;;;;26.16;47.83;100184.44;10298470;28;20345;-67
2023/08/21 03:24:02;;;;;;;7.25;4.65;;;;;;;26.27;47.88;100187.19;10300213;28;20327;-67
2023/08/21 03:29:05;;;;;;;5.70;4.70;;;;;;;25.08;49.51;100219.31;10298786;28;20237;-67
2023/08/21 03:34:08;;;;;;;7.22;5.13;;;;;;;23.94;51.58;100237.16;10296351;28;20324;-67
2023/08/21 03:39:10;;;;;;;5.57;5.00;;;;;;;25.91;47.68;100204.56;10329362;28;20902;-66
2023/08/21 03:44:11;;;;;;;5.40;4.60;;;;;;;26.52;46.57;100197.22;10302469;28;20234;-66
2023/08/21 03:49:13;;;;;;;9.38;5.00;;;;;;;26.86;46.02;100194.56;10307179;28;20324;-64
2023/08/21 03:54:15;;;;;;;6.07;4.65;;;;;;;26.92;45.72;100187.94;10304915;28;20253;-66
2023/08/21 03:59:16;;;;;;;5.30;4.75;;;;;;;26.08;46.78;100231.66;10309218;28;20349;-66
2023/08/21 04:04:18;;;;;;;7.35;4.70;;;;;;;27.68;44.93;100177.44;10304375;28;20249;-66
2023/08/21 04:09:20;;;;;;;5.47;4.75;;;;;;;27.08;45.92;100215.28;10333375;28;20236;-66
2023/08/21 04:14:21;;;;;;;7.28;4.45;;;;;;;25.96;47.46;100231.09;10304759;28;20663;-67
2023/08/21 04:19:24;;;;;;;5.97;4.65;;;;;;;26.58;46.52;100198.81;10304704;28;20229;-66
2023/08/21 04:24:25;;;;;;;7.03;4.68;;;;;;;25.98;47.45;100226.19;10305649;28;20243;-67
2023/08/21 04:29:27;;;;;;;6.63;5.13;;;;;;;26.68;46.41;100190.53;10309360;28;20321;-67
2023/08/21 04:34:29;;;;;;;6.60;5.22;;;;;;;27.53;45.03;100179.50;10310847;28;20709;-66
2023/08/21 04:39:30;;;;;;;8.40;5.15;;;;;;;25.50;48.17;100242.91;10308762;28;20261;-66
2023/08/21 04:44:32;;;;;;;7.63;4.70;;;;;;;26.18;47.40;100226.13;10310296;28;20893;-66
2023/08/21 04:49:34;;;;;;;6.63;4.82;;;;;;;24.77;49.54;100245.81;10310101;28;20238;-67
2023/08/21 04:54:35;;;;;;;9.32;4.97;;;;;;;26.98;46.14;100204.38;10303698;28;20687;-66
2023/08/21 04:59:38;;;;;;;5.63;4.70;;;;;;;27.14;45.61;100205.88;10302010;28;20231;-66
2023/08/21 05:04:40;;;;;;;6.38;5.28;;;;;;;26.85;46.62;100219.56;10305847;28;20234;-68
2023/08/21 05:09:41;;;;;;;7.85;5.00;;;;;;;26.28;47.48;100247.22;10300468;28;20237;-69
2023/08/21 05:14:43;;;;;;;7.78;5.00;;;;;;;26.95;46.10;100220.28;10304346;28;20988;-68
2023/08/21 05:19:45;;;;;;;8.07;4.53;;;;;;;26.54;47.11;100230.69;10309616;28;20225;-68
2023/08/21 05:24:46;;;;;;;7.32;5.63;;;;;;;26.46;47.20;100226.59;10306364;28;20362;-68
2023/08/21 05:29:51;;;;;;;9.77;5.40;;;;;;;27.50;45.56;100206.44;10306364;28;20233;-68
2023/08/21 05:34:52;;;;;;;8.50;5.30;;;;;;;26.70;47.07;100237.72;10302983;28;20230;-68
2023/08/21 05:39:54;;;;;;;8.18;5.72;;;;;;;26.06;48.47;100246.72;10323874;28;20257;-68
2023/08/21 05:44:56;;;;;;;9.88;5.55;;;;;;;24.24;51.06;100282.22;10302564;28;20233;-68
2023/08/21 05:49:57;;;;;;;6.43;5.40;;;;;;;25.16;49.93;100267.25;10300073;28;20616;-68
2023/08/21 05:54:59;;;;;;;6.57;5.40;;;;;;;24.98;50.49;100257.63;10302613;28;20229;-68
2023/08/21 06:00:01;;;;;;;7.90;5.57;;;;;;;24.88;50.82;100272.94;10302166;28;20324;-68
2023/08/21 06:05:03;;;;;;;6.28;5.47;;;;;;;25.24;50.18;100266.75;10303651;28;20348;-68
2023/08/21 06:10:06;;;;;;;6.43;5.70;;;;;;;23.91;52.75;100296.97;10306314;28;20261;-68
2023/08/21 06:15:09;;;;;;;6.93;5.68;;;;;;;23.41;53.94;100285.31;10298401;28;20261;-68
2023/08/21 06:20:13;;;;;;;7.35;6.30;;;;;;;24.12;51.96;100297.94;10336603;28;20241;-67
2023/08/21 06:25:15;;;;;;;6.97;5.82;;;;;;;24.82;50.79;100289.59;10297170;28;20244;-68
2023/08/21 06:30:17;;;;;;;6.45;5.78;;;;;;;24.69;51.09;100302.69;10302714;28;20214;-68
2023/08/21 06:35:19;;;;;;;9.50;6.75;;;;;;;23.95;52.92;100315.31;10302566;28;20817;-68
2023/08/21 06:40:21;;;;;;;10.30;6.47;;;;;;;25.09;50.78;100278.47;10302214;28;20302;-69
2023/08/21 06:45:22;;;;;;;8.60;6.10;;;;;;;23.53;53.46;100324.22;10304104;28;20727;-68
2023/08/21 06:50:24;;;;;;;9.35;6.45;;;;;;;25.23;50.87;100270.56;10300446;28;20301;-68
2023/08/21 06:55:26;;;;;;;8.30;6.53;;;;;;;24.58;52.13;100290.03;10307156;28;20754;-68
2023/08/21 07:00:28;;;;;;;8.23;6.43;;;;;;;25.40;50.19;100309.47;10305437;28;20283;-68
2023/08/21 07:05:29;;;;;;;6.88;6.18;;;;;;;26.88;48.51;100254.69;10303468;28;20736;-69
2023/08/21 07:10:40;;;;;;;7.82;6.45;;;;;;;25.92;49.95;100301.31;10301898;28;20244;-68
2023/08/21 07:15:42;;;;;;;6.75;5.43;;;;;;;26.24;48.62;100308.41;10302810;28;20246;-68
2023/08/21 07:20:44;;;;;;;6.80;6.10;;;;;;;25.62;49.49;100328.41;10305971;28;20614;-68
2023/08/21 07:25:45;;;;;;;7.47;6.07;;;;;;;25.72;49.55;100310.34;10304979;28;20244;-69
2023/08/21 07:30:47;;;;;;;9.07;6.35;;;;;;;26.01;49.22;100318.81;10311094;28;20240;-69
2023/08/21 07:36:03;;;;;;;8.27;5.65;;;;;;;27.36;47.36;100279.63;10311740;28;20230;-68
2023/08/21 07:41:07;;;;;;;6.80;5.90;;;;;;;27.45;47.48;100268.88;10298805;28;20233;-69
2023/08/21 07:46:15;;;;;;;8.30;6.00;;;;;;;26.48;48.46;100300.38;10306617;28;20249;-69
2023/08/21 07:51:17;;;;;;;8.10;5.60;;;;;;;27.42;47.39;100277.69;10305533;28;20249;-69
2023/08/21 07:56:19;;;;;;;6.63;5.90;;;;;;;27.88;46.40;100279.25;10311307;28;20235;-69
2023/08/21 08:01:21;;;;;;;7.30;5.78;;;;;;;27.88;46.23;100271.00;10309530;28;20281;-69
2023/08/21 08:06:23;;;;;;;6.57;5.35;;;;;;;27.90;45.96;100280.59;10307658;28;20631;-69
2023/08/21 08:11:24;;;;;;;6.93;5.40;;;;;;;27.03;47.27;100301.25;10301695;28;20249;-69
2023/08/21 08:16:26;;;;;;;6.63;5.93;;;;;;;27.66;46.82;100275.00;10308810;28;20233;-68
2023/08/21 08:21:28;;;;;;;8.18;5.55;;;;;;;29.05;44.24;100251.44;10307816;28;20249;-68
2023/08/21 08:26:29;;;;;;;7.43;5.43;;;;;;;29.19;44.63;100260.63;10308254;28;20233;-69
2023/08/21 08:31:31;;;;;;;6.40;5.60;;;;;;;28.36;45.61;100263.63;10312032;28;20284;-68
2023/08/21 08:36:33;;;;;;;6.22;5.50;;;;;;;27.91;45.31;100306.97;10313416;28;20532;-69
2023/08/21 08:41:52;;;;;;;6.82;5.60;;;;;;;28.22;45.28;100288.28;10306913;28;20288;-70
2023/08/21 08:46:54;;;;;;;7.15;5.90;;;;;;;28.76;44.80;100252.41;10310350;28;20238;-69
2023/08/21 08:51:58;;;;;;;6.72;6.03;;;;;;;28.58;44.85;100287.03;10306030;28;20237;-68
2023/08/21 08:56:59;;;;;;;8.98;5.72;;;;;;;27.61;46.53;100284.13;10305333;28;20676;-69
2023/08/21 09:02:01;;;;;;;7.53;5.22;;;;;;;29.05;44.21;100257.78;10304624;28;20229;-69
2023/08/21 09:07:09;;;;;;;7.43;5.43;;;;;;;29.67;43.51;100243.03;10302182;28;20848;-68
2023/08/21 09:12:13;;;;;;;8.25;5.70;;;;;;;29.81;43.11;100238.38;10308561;28;20237;-68
2023/08/21 09:17:15;;;;;;;6.13;5.28;;;;;;;29.52;44.03;100233.91;10303116;28;20306;-69
2023/08/21 09:22:18;;;;;;;7.15;5.20;;;;;;;28.17;44.54;100285.56;10304060;28;20281;-68
2023/08/21 09:27:20;;;;;;;7.28;5.47;;;;;;;27.81;45.35;100279.59;10311233;28;20322;-68
2023/08/21 09:32:21;;;;;;;6.53;5.13;;;;;;;28.87;44.44;100244.84;10306975;28;20598;-68
2023/08/21 09:37:31;;;;;;;6.88;5.78;;;;;;;29.32;44.46;100245.28;10303654;28;20245;-69
2023/08/21 09:42:33;;;;;;;6.82;5.80;;;;;;;29.15;44.32;100243.88;10310534;28;20365;-69
2023/08/21 09:47:38;;;;;;;9.07;6.90;;;;;;;29.57;44.25;100232.16;10306478;28;20376;-68
2023/08/21 09:52:40;;;;;;;9.98;6.97;;;;;;;29.20;44.68;100250.41;10304038;28;20238;-68
2023/08/21 09:57:42;;;;;;;10.13;6.25;;;;;;;30.88;42.32;100189.53;10307283;28;20288;-68
2023/08/21 10:02:49;;;;;;;7.57;6.07;;;;;;;31.01;43.09;100194.22;10302319;28;20239;-69
2023/08/21 10:07:55;;;;;;;8.50;6.53;;;;;;;29.98;43.74;100242.50;10268999;28;20233;-69
2023/08/21 10:12:57;;;;;;;8.57;6.80;;;;;;;31.54;42.10;100187.91;10269917;28;20813;-69
2023/08/21 10:18:17;;;;;;;9.57;7.50;;;;;;;30.17;44.17;100214.81;10261295;28;20641;-69
2023/08/21 10:23:30;;;;;;;8.88;5.57;;;;;;;30.82;41.55;100191.63;10262882;28;20236;-69
2023/08/21 10:29:06;;;;;;;7.90;6.10;;;;;;;31.11;40.89;100191.22;10269617;28;20241;-69
2023/08/21 10:34:09;;;;;;;9.35;7.03;;;;;;;30.39;42.18;100186.47;10270865;28;20235;-69
2023/08/21 10:39:20;;;;;;;8.00;7.20;;;;;;;31.46;41.88;100174.03;10270642;28;20222;-68
2023/08/21 10:44:55;;;;;;;9.43;5.30;;;;;;;29.79;41.51;100234.28;10272010;28;20975;-69
2023/08/21 10:49:59;;;;;;;6.15;4.05;;;;;;;32.26;38.93;100163.00;10261765;28;20227;-69
2023/08/21 10:55:05;;;;;;;6.32;4.18;;;;;;;31.36;38.15;100209.09;10265437;28;20235;-69
2023/08/21 11:00:11;;;;;;;5.55;3.78;;;;;;;31.88;37.54;100177.34;10263416;28;20245;-68
2023/08/21 11:06:18;;;;;;;8.60;4.25;;;;;;;29.87;41.02;100157.16;10451056;28;20814;-69
2023/08/21 11:11:21;;;;;;;4.47;3.78;;;;;;;28.81;41.14;100188.19;10456182;28;20284;-69
2023/08/21 11:16:24;;;;;;;7.00;5.47;;;;;;;30.04;40.98;100166.75;10455863;28;20242;-69
2023/08/21 11:21:26;;;;;;;6.70;5.15;;;;;;;30.49;41.51;100142.13;10448456;28;20934;-69
2023/08/21 11:26:28;;;;;;;5.57;4.22;;;;;;;31.18;39.98;100160.38;10455977;28;20745;-69
2023/08/21 11:31:29;;;;;;;7.05;5.63;;;;;;;29.88;40.35;100205.69;10452409;28;20231;-69
2023/08/21 11:36:31;;;;;;;8.35;6.25;;;;;;;29.58;41.01;100182.25;10458333;28;20227;-68
2023/08/21 11:41:52;;;;;;;5.57;4.13;;;;;;;31.33;38.63;100150.88;10453361;28;20235;-69
2023/08/21 11:46:54;;;;;;;6.80;4.15;;;;;;;29.68;39.51;100215.16;10454482;28;20251;-69
2023/08/21 11:51:56;;;;;;;7.43;4.22;;;;;;;29.25;40.80;100184.19;10455135;28;20250;-69
2023/08/21 11:56:57;;;;;;;6.28;4.28;;;;;;;30.47;39.67;100180.22;10451511;28;20741;-69
2023/08/21 12:02:00;;;;;;;5.57;3.92;;;;;;;31.40;39.68;100144.91;10443579;28;20358;-69
2023/08/21 12:07:02;;;;;;;4.70;3.35;;;;;;;30.95;40.37;100176.94;10449508;28;20718;-69
2023/08/21 12:12:05;;;;;;;4.22;3.63;;;;;;;31.34;39.34;100163.53;10451295;28;20311;-69
2023/08/21 12:17:07;;;;;;;5.95;3.78;;;;;;;32.21;38.79;100133.47;10424241;28;20328;-69
2023/08/21 12:22:09;;;;;;;5.07;3.92;;;;;;;30.97;40.02;100154.53;10426007;28;20379;-69
2023/08/21 12:27:10;;;;;;;5.88;3.88;;;;;;;31.25;39.43;100138.63;10426222;28;20310;-69
2023/08/21 12:32:12;;;;;;;5.22;3.88;;;;;;;32.04;39.97;100125.94;10428485;28;20650;-68
2023/08/21 12:37:14;;;;;;;5.63;3.78;;;;;;;32.20;39.39;100123.53;10427817;28;20231;-69
2023/08/21 12:42:18;;;;;;;7.75;4.38;;;;;;;31.17;38.83;100148.50;10427630;28;20232;-69
2023/08/21 12:47:20;;;;;;;6.00;4.20;;;;;;;32.56;39.04;100105.84;10422469;28;20252;-69
2023/08/21 12:52:21;;;;;;;4.20;3.80;;;;;;;32.27;39.40;100106.47;10427861;28;20231;-69
2023/08/21 12:57:23;;;;;;;4.78;3.55;;;;;;;30.87;39.76;100150.06;10420230;28;20655;-69
2023/08/21 13:02:27;;;;;;;5.57;3.88;;;;;;;31.74;39.03;100119.34;10426746;28;20246;-69
2023/08/21 13:07:29;;;;;;;4.32;3.38;;;;;;;31.58;38.35;100143.03;10425393;28;20321;-68
2023/08/21 13:12:30;;;;;;;4.50;3.70;;;;;;;31.69;38.28;100138.84;10427051;28;20318;-68
2023/08/21 13:17:32;;;;;;;4.93;3.22;;;;;;;32.13;38.58;100128.72;10426123;28;20366;-69
2023/08/21 13:22:51;;;;;;;6.30;3.35;;;;;;;33.03;37.06;100088.50;10419778;28;20235;-69
2023/08/21 13:27:54;;;;;;;4.03;3.30;;;;;;;31.66;38.34;100104.34;10411358;28;20769;-69
2023/08/21 13:32:56;;;;;;;4.20;3.58;;;;;;;30.93;38.36;100137.72;10418522;28;20249;-68
2023/08/21 13:37:57;;;;;;;5.28;3.53;;;;;;;32.77;37.41;100099.66;10422791;28;20243;-69
2023/08/21 13:43:00;;;;;;;4.63;3.42;;;;;;;32.28;37.40;100099.81;10418048;28;20241;-68
2023/08/21 13:48:04;;;;;;;4.13;3.50;;;;;;;32.82;36.78;100099.47;10419233;28;20246;-70
2023/08/21 13:53:06;;;;;;;6.53;3.58;;;;;;;32.64;37.62;100093.94;10425726;28;20784;-70
2023/08/21 13:58:07;;;;;;;4.80;3.22;;;;;;;32.94;37.63;100113.44;10422509;28;20233;-70
2023/08/21 14:03:09;;;;;;;4.15;3.42;;;;;;;33.81;36.31;100079.06;10417117;28;20237;-70
2023/08/21 14:08:11;;;;;;;5.05;3.42;;;;;;;32.95;36.72;100103.19;10423717;28;20232;-70
2023/08/21 14:13:12;;;;;;;5.60;2.92;;;;;;;32.47;38.14;100093.94;10424739;28;20908;-68
2023/08/21 14:18:14;;;;;;;5.32;2.83;;;;;;;32.95;37.62;100087.38;10420863;28;20258;-68
2023/08/21 14:23:16;;;;;;;5.03;3.47;;;;;;;33.37;36.18;100081.25;10419466;28;20235;-67
2023/08/21 14:28:18;;;;;;;6.60;3.40;;;;;;;33.28;37.70;100077.69;10419149;28;20232;-67
2023/08/21 14:33:21;;;;;;;4.32;3.35;;;;;;;33.37;37.41;100072.91;10416331;28;20590;-67
2023/08/21 14:38:22;;;;;;;3.80;3.40;;;;;;;32.88;38.17;100094.56;10417199;28;20228;-68
2023/08/21 14:43:24;;;;;;;3.90;3.05;;;;;;;32.58;37.61;100091.66;10420589;28;20220;-67
2023/08/21 14:48:26;;;;;;;5.18;3.10;;;;;;;32.75;37.27;100115.78;10419495;28;20235;-66
2023/08/21 14:53:27;;;;;;;5.10;3.25;;;;;;;32.62;37.59;100100.94;10426636;28;20219;-67
2023/08/21 14:58:29;;;;;;;5.50;3.40;;;;;;;33.40;37.09;100072.22;10411308;28;20235;-68
2023/08/21 15:05:17;;;;;;;3.70;3.17;;;;;;;30.73;40.87;100031.34;10460784;27;2016543;-68
2023/08/21 15:10:19;;;;;;;3.95;3.50;;;;;;;30.83;39.95;100060.66;10441487;28;20611;-66
2023/08/21 15:15:21;;;;;;;5.47;3.70;;;;;;;31.50;39.77;100029.31;10439125;28;20227;-67
2023/08/21 15:20:26;;;;;;;7.32;3.60;;;;;;;30.34;40.48;100060.44;10447275;28;20215;-67
2023/08/21 15:25:28;;;;;;;3.90;3.30;;;;;;;31.13;39.19;100041.66;10443310;28;20242;-67
2023/08/21 15:30:29;;;;;;;4.43;3.30;;;;;;;32.40;38.04;100013.31;10445130;28;20204;-67
2023/08/21 15:35:31;;;;;;;4.68;3.08;;;;;;;32.13;38.69;100025.53;10444275;28;20253;-66
2023/08/21 15:40:33;;;;;;;3.28;2.97;;;;;;;32.61;37.87;100005.16;10445541;28;20247;-68
2023/08/21 15:45:35;;;;;;;6.15;3.50;;;;;;;31.71;38.23;100035.06;10441717;28;20311;-68
2023/08/21 15:50:36;;;;;;;7.10;3.30;;;;;;;31.76;38.29;100008.38;10449471;28;20231;-68
2023/08/21 15:55:38;;;;;;;4.32;2.72;;;;;;;32.03;38.98;100007.28;10449765;28;20324;-67
2023/08/21 16:00:40;;;;;;;4.68;3.13;;;;;;;31.91;39.39;100007.94;10447364;28;20239;-67
2023/08/21 16:05:42;;;;;;;5.68;3.55;;;;;;;31.34;39.83;100020.63;10444451;28;20235;-67
2023/08/21 16:10:43;;;;;;;4.07;3.20;;;;;;;32.44;39.22;99981.09;10446491;28;20277;-67
2023/08/21 16:15:45;;;;;;;4.80;3.92;;;;;;;30.54;40.10;100025.22;10425828;28;20231;-67
2023/08/21 16:20:47;;;;;;;5.55;3.42;;;;;;;32.18;38.69;99975.53;10419211;28;20693;-67
2023/08/21 16:25:49;;;;;;;5.75;3.72;;;;;;;32.32;37.71;99987.25;10418422;28;20240;-67
2023/08/21 16:30:50;;;;;;;4.00;3.10;;;;;;;32.09;38.80;100006.81;10419369;28;20232;-67
2023/08/21 16:35:52;;;;;;;6.68;3.03;;;;;;;32.42;38.28;99981.41;10422374;28;20834;-66
2023/08/21 16:40:54;;;;;;;4.18;2.83;;;;;;;30.85;39.59;100030.75;10420665;28;20311;-66
2023/08/21 16:45:56;;;;;;;6.43;3.30;;;;;;;31.99;38.36;99989.72;10415420;28;20250;-66
2023/08/21 16:50:57;;;;;;;4.93;3.33;;;;;;;32.02;38.35;100000.94;10417756;28;20241;-66
2023/08/21 16:55:59;;;;;;;6.65;3.50;;;;;;;32.68;37.58;99990.84;10416435;28;20924;-67
2023/08/21 17:01:01;;;;;;;5.68;3.50;;;;;;;32.71;37.13;100026.16;10414483;28;20327;-66
2023/08/21 17:06:03;;;;;;;4.25;3.50;;;;;;;32.87;38.23;99977.38;10410947;28;20612;-65
2023/08/21 17:11:06;;;;;;;5.18;3.33;;;;;;;33.17;37.44;100005.97;10413144;28;20223;-67
2023/08/21 17:16:09;;;;;;;3.88;3.40;;;;;;;33.02;37.89;99981.56;10411859;28;21074;-66
2023/08/21 17:21:12;;;;;;;4.25;3.00;;;;;;;33.84;37.80;99958.25;10412083;28;20240;-66
2023/08/21 17:26:18;;;;;;;4.57;3.30;;;;;;;32.41;38.33;100035.16;10411080;28;20334;-66
2023/08/21 17:31:19;;;;;;;4.60;3.10;;;;;;;33.00;38.09;99981.09;10414460;28;20350;-66
2023/08/21 17:36:21;;;;;;;4.03;3.45;;;;;;;32.64;38.33;100016.38;10418119;28;20263;-66
2023/08/21 17:41:23;;;;;;;7.53;3.55;;;;;;;31.14;40.06;100022.00;10415860;28;20621;-66
2023/08/21 17:46:25;;;;;;;3.63;2.95;;;;;;;32.78;38.95;99984.94;10418474;28;20232;-66
2023/08/21 17:51:26;;;;;;;5.53;3.05;;;;;;;31.93;40.88;100011.19;10418365;28;20239;-66
2023/08/21 17:56:28;;;;;;;3.30;2.88;;;;;;;31.58;40.45;100002.84;10413817;28;20741;-66
2023/08/21 18:01:30;;;;;;;5.63;3.33;;;;;;;30.76;41.59;100049.25;10417782;28;20250;-67
2023/08/21 18:06:31;;;;;;;4.13;2.58;;;;;;;30.50;41.07;100029.72;10420094;28;20322;-67
2023/08/21 18:11:33;;;;;;;5.53;2.60;;;;;;;31.79;40.42;100007.75;10419968;28;20242;-65
2023/08/21 18:16:35;;;;;;;2.72;2.50;;;;;;;31.36;39.38;100023.06;10418839;28;20659;-66
2023/08/21 18:21:37;;;;;;;3.20;2.33;;;;;;;31.63;39.34;100024.81;10417925;28;20228;-67
2023/08/21 18:26:41;;;;;;;5.40;2.55;;;;;;;31.97;38.31;100014.94;10419149;28;20236;-66
2023/08/21 18:31:43;;;;;;;2.47;2.05;;;;;;;30.86;39.95;100053.69;10415142;28;20255;-66
2023/08/21 18:36:44;;;;;;;4.18;2.53;;;;;;;30.39;40.31;100045.72;10417935;28;20232;-67
2023/08/21 18:41:46;;;;;;;3.38;1.80;;;;;;;31.04;39.17;100024.22;10418598;28;20327;-67
2023/08/21 18:46:47;;;;;;;2.40;2.13;;;;;;;30.35;40.40;100028.13;10411170;28;20247;-66
2023/08/21 18:51:49;;;;;;;3.15;2.20;;;;;;;29.90;41.19;100045.41;10422836;28;20809;-67
2023/08/21 18:56:51;;;;;;;2.55;2.35;;;;;;;28.95;42.56;100059.63;10412076;28;20238;-66
2023/08/21 19:01:53;;;;;;;6.00;2.58;;;;;;;29.34;41.25;100041.88;10415038;28;20612;-66
2023/08/21 19:06:55;;;;;;;3.28;2.10;;;;;;;29.06;41.90;100044.53;10417481;28;20747;-66
2023/08/21 19:12:07;;;;;;;3.45;2.40;;;;;;;28.54;42.21;100052.84;10412406;28;20221;-67
2023/08/21 19:17:09;;;;;;;4.93;2.70;;;;;;;28.40;42.43;100047.28;10541572;28;20302;-66
2023/08/21 19:22:11;;;;;;;2.78;2.50;;;;;;;27.96;43.14;100062.19;10543748;28;20217;-66
2023/08/21 19:27:13;;;;;;;3.08;2.10;;;;;;;27.91;43.55;100080.69;10537778;28;20332;-66
2023/08/21 19:32:15;;;;;;;4.57;2.22;;;;;;;27.22;44.25;100067.97;10537733;28;20246;-65
2023/08/21 19:37:17;;;;;;;2.97;2.63;;;;;;;27.90;43.70;100043.31;10539377;28;20321;-66
2023/08/21 19:42:22;;;;;;;9.00;2.60;;;;;;;28.57;42.70;100046.72;10534765;28;20311;-69
2023/08/21 19:47:24;;;;;;;3.92;2.60;;;;;;;28.42;42.61;100067.09;10541535;28;20317;-69
2023/08/21 19:52:26;;;;;;;3.45;2.53;;;;;;;28.63;42.47;100069.50;10553601;27;20271;-70
2023/08/21 19:57:27;;;;;;;4.38;2.63;;;;;;;28.82;41.82;100074.19;10548666;27;20255;-68
2023/08/21 20:02:29;;;;;;;3.45;2.42;;;;;;;29.27;41.21;100069.00;10543521;27;20242;-69
2023/08/21 20:07:31;;;;;;;3.97;2.38;;;;;;;28.08;42.84;100088.44;10548777;27;20229;-69
2023/08/21 20:12:32;;;;;;;3.40;2.30;;;;;;;28.47;42.64;100068.91;10548280;27;20713;-69
2023/08/21 20:17:34;;;;;;;3.33;2.45;;;;;;;29.79;41.10;100044.00;10551830;27;20303;-69
2023/08/21 20:22:36;;;;;;;3.72;2.47;;;;;;;30.24;40.63;100047.69;10545448;27;20236;-69
2023/08/21 20:27:37;;;;;;;4.72;2.58;;;;;;;28.56;42.79;100100.16;10547825;27;20234;-69
2023/08/21 20:32:40;;;;;;;3.90;2.40;;;;;;;29.55;41.86;100060.75;10551627;28;20716;-68
2023/08/21 20:37:42;;;;;;;4.38;2.55;;;;;;;28.36;43.22;100076.53;10544086;27;20230;-66
2023/08/21 20:42:44;;;;;;;2.53;2.33;;;;;;;28.98;42.29;100067.28;10546523;28;20230;-67
2023/08/21 20:47:46;;;;;;;2.97;2.40;;;;;;;29.25;42.05;100074.00;10526344;28;20248;-65
2023/08/21 20:52:48;;;;;;;3.03;2.53;;;;;;;29.18;42.22;100085.41;10546903;28;20237;-66
2023/08/21 20:57:50;;;;;;;2.83;2.50;;;;;;;28.81;43.83;100103.63;10545137;28;20235;-66
2023/08/21 21:02:52;;;;;;;3.33;2.60;;;;;;;28.76;44.05;100073.44;10539660;27;20244;-66
2023/08/21 21:07:54;;;;;;;3.70;2.50;;;;;;;28.44;43.93;100090.72;10544745;28;20261;-68
2023/08/21 21:12:56;;;;;;;3.45;2.70;;;;;;;26.85;45.37;100118.00;10544474;27;20616;-68
2023/08/21 21:17:58;;;;;;;3.88;2.70;;;;;;;26.96;44.81;100092.09;10546162;28;20229;-68
2023/08/21 21:23:00;;;;;;;2.38;2.17;;;;;;;27.96;43.08;100075.13;10543591;28;20237;-68
2023/08/21 21:28:02;;;;;;;3.97;2.40;;;;;;;27.16;46.20;100077.34;10535387;27;21031;-68
2023/08/21 21:33:03;;;;;;;4.22;2.67;;;;;;;26.41;46.82;100081.22;10541214;28;21347;-70
2023/08/21 21:38:05;;;;;;;3.25;2.70;;;;;;;28.07;44.39;100045.53;10541158;27;20886;-68
2023/08/21 21:43:07;;;;;;;4.68;3.00;;;;;;;27.82;45.66;100086.03;10539709;27;20237;-69
2023/08/21 21:48:09;;;;;;;4.43;2.60;;;;;;;28.50;44.84;100070.25;10540169;27;20227;-68
2023/08/21 21:53:11;;;;;;;3.15;2.70;;;;;;;28.27;44.61;100092.03;10543485;27;20241;-67
2023/08/21 21:58:12;;;;;;;4.05;3.00;;;;;;;28.75;44.31;100078.13;10547856;27;20267;-68
2023/08/21 22:03:14;;;;;;;5.20;2.50;;;;;;;28.93;43.80;100073.72;10542480;28;20260;-68
2023/08/21 22:08:16;;;;;;;6.40;2.60;;;;;;;28.25;44.06;100107.22;10543000;27;20314;-68
2023/08/21 22:13:18;;;;;;;3.75;2.70;;;;;;;29.02;42.81;100071.06;10543170;28;20225;-67
2023/08/21 22:18:20;;;;;;;2.97;2.65;;;;;;;29.17;42.62;100067.25;10537942;27;20234;-68
2023/08/21 22:23:21;;;;;;;6.15;2.75;;;;;;;28.91;43.13;100072.38;10543816;28;20221;-68
2023/08/21 22:28:23;;;;;;;4.30;2.75;;;;;;;29.00;43.39;100073.31;10543645;28;21118;-69
2023/08/21 22:33:25;;;;;;;5.95;2.92;;;;;;;29.21;43.12;100062.75;10538081;28;20230;-67
2023/08/21 22:38:27;;;;;;;5.50;2.88;;;;;;;26.37;47.52;100094.69;10544308;28;20234;-67
2023/08/21 22:43:28;;;;;;;5.80;3.13;;;;;;;28.69;44.55;100026.22;10542932;28;20590;-68
2023/08/21 22:48:30;;;;;;;3.25;2.90;;;;;;;28.49;43.75;100082.38;10536657;28;20316;-68
2023/08/21 22:53:31;;;;;;;5.88;3.63;;;;;;;26.55;47.73;100078.66;10540801;27;20225;-67
2023/08/21 22:58:33;;;;;;;3.25;2.85;;;;;;;28.56;44.76;100052.53;10542940;28;20238;-68
2023/08/21 23:03:35;;;;;;;7.18;3.08;;;;;;;26.77;47.95;100067.25;10521890;28;20242;-68
2023/08/21 23:08:36;;;;;;;4.13;3.33;;;;;;;28.88;44.04;100039.91;10541531;28;20728;-67
2023/08/21 23:13:39;;;;;;;3.95;3.10;;;;;;;28.96;44.34;100047.50;10541632;28;20225;-68